sensor_id;sensor_type;location;lat;lon;timestamp;temperature;humidity
8928;DHT22;4499;48.304;11.902;2023-07-20T00:00:30;18.60;99.90
8928;DHT22;4499;48.304;11.902;2023-07-20T00:03:10;18.60;99.90
8928;DHT22;4499;48.304;11.902;2023-07-20T00:05:39;18.60;99.90
8928;DHT22;4499;48.304;11.902;2023-07-20T00:08:07;18.50;99.90
8928;DHT22;4499;48.304;11.902;2023-07-20T00:10:37;18.50;99.90
8928;DHT22;4499;48.304;11.902;2023-07-20T00:13:05;18.50;99.90
8928;DHT22;4499;48.304;11.902;2023-07-20T00:15:33;18.50;99.90
8928;DHT22;4499;48.304;11.902;2023-07-20T00:18:02;18.50;99.90
8928;DHT22;4499;48.304;11.902;2023-07-20T00:20:30;18.50;99.90
8928;DHT22;4499;48.304;11.902;2023-07-20T00:22:58;18.50;99.90
8928;DHT22;4499;48.304;11.902;2023-07-20T00:25:26;18.40;99.90
8928;DHT22;4499;48.304;11.902;2023-07-20T00:27:56;18.30;99.90
8928;DHT22;4499;48.304;11.902;2023-07-20T00:30:24;18.20;99.90
8928;DHT22;4499;48.304;11.902;2023-07-20T00:32:52;18.10;99.90
8928;DHT22;4499;48.304;11.902;2023-07-20T00:35:21;18.10;99.90
8928;DHT22;4499;48.304;11.902;2023-07-20T00:37:49;18.10;99.90
8928;DHT22;4499;48.304;11.902;2023-07-20T00:40:17;18.20;99.90
8928;DHT22;4499;48.304;11.902;2023-07-20T00:42:45;18.10;99.90
8928;DHT22;4499;48.304;11.902;2023-07-20T00:45:15;18.20;99.90
8928;DHT22;4499;48.304;11.902;2023-07-20T00:47:43;18.20;99.90
8928;DHT22;4499;48.304;11.902;2023-07-20T00:50:12;18.20;99.90
8928;DHT22;4499;48.304;11.902;2023-07-20T00:52:41;18.10;99.90
8928;DHT22;4499;48.304;11.902;2023-07-20T00:55:09;18.10;99.90
8928;DHT22;4499;48.304;11.902;2023-07-20T00:57:38;18.10;99.90
8928;DHT22;4499;48.304;11.902;2023-07-20T01:00:07;18.10;99.90
8928;DHT22;4499;48.304;11.902;2023-07-20T01:02:36;18.10;99.90
8928;DHT22;4499;48.304;11.902;2023-07-20T01:05:06;18.10;99.90
8928;DHT22;4499;48.304;11.902;2023-07-20T01:07:38;18.10;99.90
8928;DHT22;4499;48.304;11.902;2023-07-20T01:10:14;18.20;99.90
8928;DHT22;4499;48.304;11.902;2023-07-20T01:12:47;18.20;99.90
8928;DHT22;4499;48.304;11.902;2023-07-20T01:15:16;18.10;99.90
8928;DHT22;4499;48.304;11.902;2023-07-20T01:17:45;18.10;99.90
8928;DHT22;4499;48.304;11.902;2023-07-20T01:20:15;18.10;99.90
8928;DHT22;4499;48.304;11.902;2023-07-20T01:23:16;18.10;99.90
8928;DHT22;4499;48.304;11.902;2023-07-20T01:26:02;18.10;99.90
8928;DHT22;4499;48.304;11.902;2023-07-20T01:29:03;18.10;99.90
8928;DHT22;4499;48.304;11.902;2023-07-20T01:31:36;18.10;99.90
8928;DHT22;4499;48.304;11.902;2023-07-20T01:34:07;18.10;99.90
8928;DHT22;4499;48.304;11.902;2023-07-20T01:36:36;18.10;99.90
8928;DHT22;4499;48.304;11.902;2023-07-20T01:39:06;18.20;99.90
8928;DHT22;4499;48.304;11.902;2023-07-20T01:41:36;18.20;99.90
8928;DHT22;4499;48.304;11.902;2023-07-20T01:44:04;18.20;99.90
8928;DHT22;4499;48.304;11.902;2023-07-20T01:46:32;18.20;99.90
8928;DHT22;4499;48.304;11.902;2023-07-20T01:49:02;18.20;99.90
8928;DHT22;4499;48.304;11.902;2023-07-20T01:51:30;18.20;99.90
8928;DHT22;4499;48.304;11.902;2023-07-20T01:53:58;18.20;99.90
8928;DHT22;4499;48.304;11.902;2023-07-20T01:56:27;18.20;99.90
8928;DHT22;4499;48.304;11.902;2023-07-20T01:58:55;18.20;99.90
8928;DHT22;4499;48.304;11.902;2023-07-20T02:01:23;18.20;99.90
8928;DHT22;4499;48.304;11.902;2023-07-20T02:03:52;18.20;99.90
8928;DHT22;4499;48.304;11.902;2023-07-20T02:06:22;18.20;99.90
8928;DHT22;4499;48.304;11.902;2023-07-20T02:08:51;18.20;99.90
8928;DHT22;4499;48.304;11.902;2023-07-20T02:11:19;18.20;99.90
8928;DHT22;4499;48.304;11.902;2023-07-20T02:13:47;18.20;99.90
8928;DHT22;4499;48.304;11.902;2023-07-20T02:16:15;18.20;99.90
8928;DHT22;4499;48.304;11.902;2023-07-20T02:18:44;18.20;99.90
8928;DHT22;4499;48.304;11.902;2023-07-20T02:21:12;18.10;99.90
8928;DHT22;4499;48.304;11.902;2023-07-20T02:23:41;18.10;99.90
8928;DHT22;4499;48.304;11.902;2023-07-20T02:26:10;18.20;99.90
8928;DHT22;4499;48.304;11.902;2023-07-20T02:28:38;18.20;99.90
8928;DHT22;4499;48.304;11.902;2023-07-20T02:31:06;18.20;99.90
8928;DHT22;4499;48.304;11.902;2023-07-20T02:33:34;18.20;99.90
8928;DHT22;4499;48.304;11.902;2023-07-20T02:36:02;18.20;99.90
8928;DHT22;4499;48.304;11.902;2023-07-20T02:38:30;18.20;99.90
8928;DHT22;4499;48.304;11.902;2023-07-20T02:41:00;18.30;99.90
8928;DHT22;4499;48.304;11.902;2023-07-20T02:43:29;18.30;99.90
8928;DHT22;4499;48.304;11.902;2023-07-20T02:45:57;18.30;99.90
8928;DHT22;4499;48.304;11.902;2023-07-20T02:48:25;18.30;99.90
8928;DHT22;4499;48.304;11.902;2023-07-20T02:50:53;18.40;99.90
8928;DHT22;4499;48.304;11.902;2023-07-20T02:53:22;18.40;99.90
8928;DHT22;4499;48.304;11.902;2023-07-20T02:55:50;18.40;99.90
8928;DHT22;4499;48.304;11.902;2023-07-20T02:58:19;18.40;99.90
8928;DHT22;4499;48.304;11.902;2023-07-20T03:00:47;18.40;99.90
8928;DHT22;4499;48.304;11.902;2023-07-20T03:03:16;18.40;99.90
8928;DHT22;4499;48.304;11.902;2023-07-20T03:05:44;18.40;99.90
8928;DHT22;4499;48.304;11.902;2023-07-20T03:08:12;18.40;99.90
8928;DHT22;4499;48.304;11.902;2023-07-20T03:10:40;18.40;99.90
8928;DHT22;4499;48.304;11.902;2023-07-20T03:13:08;18.40;99.90
8928;DHT22;4499;48.304;11.902;2023-07-20T03:15:38;18.40;99.90
8928;DHT22;4499;48.304;11.902;2023-07-20T03:18:06;18.30;99.90
8928;DHT22;4499;48.304;11.902;2023-07-20T03:20:35;18.40;99.90
8928;DHT22;4499;48.304;11.902;2023-07-20T03:23:04;18.40;99.90
8928;DHT22;4499;48.304;11.902;2023-07-20T03:25:32;18.40;99.90
8928;DHT22;4499;48.304;11.902;2023-07-20T03:28:00;18.40;99.90
8928;DHT22;4499;48.304;11.902;2023-07-20T03:30:28;18.30;99.90
8928;DHT22;4499;48.304;11.902;2023-07-20T03:32:58;18.30;99.90
8928;DHT22;4499;48.304;11.902;2023-07-20T03:35:26;18.30;99.90
8928;DHT22;4499;48.304;11.902;2023-07-20T03:37:54;18.30;99.90
8928;DHT22;4499;48.304;11.902;2023-07-20T03:40:23;18.30;99.90
8928;DHT22;4499;48.304;11.902;2023-07-20T03:42:52;18.30;99.90
8928;DHT22;4499;48.304;11.902;2023-07-20T03:45:20;18.30;99.90
8928;DHT22;4499;48.304;11.902;2023-07-20T03:47:50;18.30;99.90
8928;DHT22;4499;48.304;11.902;2023-07-20T03:50:20;18.30;99.90
8928;DHT22;4499;48.304;11.902;2023-07-20T03:52:48;18.30;99.90
8928;DHT22;4499;48.304;11.902;2023-07-20T03:55:16;18.30;99.90
8928;DHT22;4499;48.304;11.902;2023-07-20T03:57:44;18.30;99.90
8928;DHT22;4499;48.304;11.902;2023-07-20T04:00:13;18.40;99.90
8928;DHT22;4499;48.304;11.902;2023-07-20T04:02:43;18.40;99.90
8928;DHT22;4499;48.304;11.902;2023-07-20T04:05:11;18.40;99.90
8928;DHT22;4499;48.304;11.902;2023-07-20T04:07:41;18.40;99.90
8928;DHT22;4499;48.304;11.902;2023-07-20T04:10:09;18.40;99.90
8928;DHT22;4499;48.304;11.902;2023-07-20T04:12:38;18.30;99.90
8928;DHT22;4499;48.304;11.902;2023-07-20T04:15:07;18.40;99.90
8928;DHT22;4499;48.304;11.902;2023-07-20T04:17:36;18.40;99.90
8928;DHT22;4499;48.304;11.902;2023-07-20T04:20:05;18.40;99.90
8928;DHT22;4499;48.304;11.902;2023-07-20T04:22:33;18.40;99.90
8928;DHT22;4499;48.304;11.902;2023-07-20T04:25:04;18.40;99.90
8928;DHT22;4499;48.304;11.902;2023-07-20T04:27:32;18.50;99.90
8928;DHT22;4499;48.304;11.902;2023-07-20T04:30:00;18.50;99.90
8928;DHT22;4499;48.304;11.902;2023-07-20T04:32:29;18.50;99.90
8928;DHT22;4499;48.304;11.902;2023-07-20T04:35:06;18.50;99.90
8928;DHT22;4499;48.304;11.902;2023-07-20T04:37:35;18.50;99.90
8928;DHT22;4499;48.304;11.902;2023-07-20T04:40:06;18.50;99.90
8928;DHT22;4499;48.304;11.902;2023-07-20T04:42:35;18.70;99.90
8928;DHT22;4499;48.304;11.902;2023-07-20T04:45:04;18.70;99.90
8928;DHT22;4499;48.304;11.902;2023-07-20T04:47:32;18.80;99.90
8928;DHT22;4499;48.304;11.902;2023-07-20T04:50:00;18.80;99.90
8928;DHT22;4499;48.304;11.902;2023-07-20T04:52:28;18.90;99.90
8928;DHT22;4499;48.304;11.902;2023-07-20T04:55:10;18.90;99.90
8928;DHT22;4499;48.304;11.902;2023-07-20T04:57:38;18.90;99.90
8928;DHT22;4499;48.304;11.902;2023-07-20T05:00:07;19.00;99.90
8928;DHT22;4499;48.304;11.902;2023-07-20T05:02:36;19.00;99.90
8928;DHT22;4499;48.304;11.902;2023-07-20T05:05:05;19.00;99.90
8928;DHT22;4499;48.304;11.902;2023-07-20T05:07:34;19.00;99.90
8928;DHT22;4499;48.304;11.902;2023-07-20T05:10:02;19.00;99.90
8928;DHT22;4499;48.304;11.902;2023-07-20T05:12:32;19.00;99.90
8928;DHT22;4499;48.304;11.902;2023-07-20T05:15:00;19.00;99.90
8928;DHT22;4499;48.304;11.902;2023-07-20T05:17:28;18.90;99.90
8928;DHT22;4499;48.304;11.902;2023-07-20T05:19:57;18.90;99.90
8928;DHT22;4499;48.304;11.902;2023-07-20T05:22:25;18.80;99.90
8928;DHT22;4499;48.304;11.902;2023-07-20T05:24:53;18.80;99.90
8928;DHT22;4499;48.304;11.902;2023-07-20T05:27:21;18.80;99.90
8928;DHT22;4499;48.304;11.902;2023-07-20T05:29:51;18.80;99.90
8928;DHT22;4499;48.304;11.902;2023-07-20T05:32:22;18.80;99.90
8928;DHT22;4499;48.304;11.902;2023-07-20T05:34:52;18.90;99.90
8928;DHT22;4499;48.304;11.902;2023-07-20T05:37:21;19.00;99.90
8928;DHT22;4499;48.304;11.902;2023-07-20T05:39:49;19.00;99.90
8928;DHT22;4499;48.304;11.902;2023-07-20T05:42:17;19.00;99.90
8928;DHT22;4499;48.304;11.902;2023-07-20T05:44:45;19.00;99.90
8928;DHT22;4499;48.304;11.902;2023-07-20T05:47:16;19.10;99.90
8928;DHT22;4499;48.304;11.902;2023-07-20T05:49:44;19.10;99.90
8928;DHT22;4499;48.304;11.902;2023-07-20T05:52:13;19.00;99.90
8928;DHT22;4499;48.304;11.902;2023-07-20T05:54:41;19.10;99.90
8928;DHT22;4499;48.304;11.902;2023-07-20T05:57:09;19.10;99.90
8928;DHT22;4499;48.304;11.902;2023-07-20T05:59:37;19.20;99.90
8928;DHT22;4499;48.304;11.902;2023-07-20T06:02:07;19.20;99.50
8928;DHT22;4499;48.304;11.902;2023-07-20T06:04:38;19.20;99.60
8928;DHT22;4499;48.304;11.902;2023-07-20T06:07:06;19.30;99.90
8928;DHT22;4499;48.304;11.902;2023-07-20T06:09:35;19.60;99.90
8928;DHT22;4499;48.304;11.902;2023-07-20T06:12:04;19.80;99.20
8928;DHT22;4499;48.304;11.902;2023-07-20T06:14:32;19.90;98.70
8928;DHT22;4499;48.304;11.902;2023-07-20T06:17:00;20.10;99.20
8928;DHT22;4499;48.304;11.902;2023-07-20T06:19:29;20.40;99.20
8928;DHT22;4499;48.304;11.902;2023-07-20T06:21:58;20.60;97.30
8928;DHT22;4499;48.304;11.902;2023-07-20T06:24:27;20.70;96.70
8928;DHT22;4499;48.304;11.902;2023-07-20T06:26:55;20.60;96.40
8928;DHT22;4499;48.304;11.902;2023-07-20T06:29:23;20.50;96.10
8928;DHT22;4499;48.304;11.902;2023-07-20T06:31:51;20.60;96.60
8928;DHT22;4499;48.304;11.902;2023-07-20T06:34:19;20.40;96.20
8928;DHT22;4499;48.304;11.902;2023-07-20T06:36:50;20.60;96.30
8928;DHT22;4499;48.304;11.902;2023-07-20T06:39:19;21.00;95.30
8928;DHT22;4499;48.304;11.902;2023-07-20T06:41:51;21.80;93.60
8928;DHT22;4499;48.304;11.902;2023-07-20T06:44:21;22.40;91.50
8928;DHT22;4499;48.304;11.902;2023-07-20T06:46:49;22.90;91.40
8928;DHT22;4499;48.304;11.902;2023-07-20T06:49:24;23.40;85.10
8928;DHT22;4499;48.304;11.902;2023-07-20T06:51:53;23.30;83.50
8928;DHT22;4499;48.304;11.902;2023-07-20T06:54:22;23.80;82.70
8928;DHT22;4499;48.304;11.902;2023-07-20T06:56:51;24.30;77.10
8928;DHT22;4499;48.304;11.902;2023-07-20T06:59:22;25.10;76.30
8928;DHT22;4499;48.304;11.902;2023-07-20T07:01:50;25.70;72.00
8928;DHT22;4499;48.304;11.902;2023-07-20T07:04:19;26.10;68.00
8928;DHT22;4499;48.304;11.902;2023-07-20T07:06:47;26.40;64.20
8928;DHT22;4499;48.304;11.902;2023-07-20T07:09:16;26.20;64.20
8928;DHT22;4499;48.304;11.902;2023-07-20T07:11:46;26.60;65.10
8928;DHT22;4499;48.304;11.902;2023-07-20T07:14:14;27.40;60.20
8928;DHT22;4499;48.304;11.902;2023-07-20T07:16:42;28.00;54.30
8928;DHT22;4499;48.304;11.902;2023-07-20T07:19:11;27.50;54.40
8928;DHT22;4499;48.304;11.902;2023-07-20T07:21:39;26.70;54.30
8928;DHT22;4499;48.304;11.902;2023-07-20T07:24:07;26.50;56.50
8928;DHT22;4499;48.304;11.902;2023-07-20T07:26:36;26.00;56.20
8928;DHT22;4499;48.304;11.902;2023-07-20T07:29:07;25.70;55.90
8928;DHT22;4499;48.304;11.902;2023-07-20T07:31:35;25.30;56.40
8928;DHT22;4499;48.304;11.902;2023-07-20T07:34:03;24.90;57.60
8928;DHT22;4499;48.304;11.902;2023-07-20T07:36:33;24.70;58.30
8928;DHT22;4499;48.304;11.902;2023-07-20T07:39:01;24.40;57.40
8928;DHT22;4499;48.304;11.902;2023-07-20T07:41:50;24.50;56.70
8928;DHT22;4499;48.304;11.902;2023-07-20T07:44:20;23.80;59.10
8928;DHT22;4499;48.304;11.902;2023-07-20T07:46:49;23.80;58.50
8928;DHT22;4499;48.304;11.902;2023-07-20T07:49:17;23.60;60.50
8928;DHT22;4499;48.304;11.902;2023-07-20T07:51:46;24.00;62.50
8928;DHT22;4499;48.304;11.902;2023-07-20T07:54:15;23.90;60.30
8928;DHT22;4499;48.304;11.902;2023-07-20T07:56:44;23.80;61.00
8928;DHT22;4499;48.304;11.902;2023-07-20T07:59:12;23.60;61.70
8928;DHT22;4499;48.304;11.902;2023-07-20T08:01:42;23.40;62.00
8928;DHT22;4499;48.304;11.902;2023-07-20T08:04:10;23.60;63.10
8928;DHT22;4499;48.304;11.902;2023-07-20T08:06:38;23.90;60.30
8928;DHT22;4499;48.304;11.902;2023-07-20T08:09:07;23.80;59.10
8928;DHT22;4499;48.304;11.902;2023-07-20T08:11:35;23.80;61.00
8928;DHT22;4499;48.304;11.902;2023-07-20T08:14:04;23.90;56.40
8928;DHT22;4499;48.304;11.902;2023-07-20T08:16:32;23.50;55.80
8928;DHT22;4499;48.304;11.902;2023-07-20T08:19:02;23.80;57.40
8928;DHT22;4499;48.304;11.902;2023-07-20T08:21:31;24.30;57.10
8928;DHT22;4499;48.304;11.902;2023-07-20T08:23:59;24.80;56.60
8928;DHT22;4499;48.304;11.902;2023-07-20T08:26:27;25.30;54.90
8928;DHT22;4499;48.304;11.902;2023-07-20T08:28:55;24.80;52.00
8928;DHT22;4499;48.304;11.902;2023-07-20T08:31:23;25.40;52.40
8928;DHT22;4499;48.304;11.902;2023-07-20T08:33:52;26.00;52.40
8928;DHT22;4499;48.304;11.902;2023-07-20T08:36:21;26.80;50.30
8928;DHT22;4499;48.304;11.902;2023-07-20T08:38:50;27.50;48.40
8928;DHT22;4499;48.304;11.902;2023-07-20T08:41:19;29.20;45.50
8928;DHT22;4499;48.304;11.902;2023-07-20T08:43:47;29.60;42.20
8928;DHT22;4499;48.304;11.902;2023-07-20T08:46:16;29.50;42.00
8928;DHT22;4499;48.304;11.902;2023-07-20T08:48:45;29.60;40.70
8928;DHT22;4499;48.304;11.902;2023-07-20T08:51:14;29.50;42.00
8928;DHT22;4499;48.304;11.902;2023-07-20T08:53:45;29.60;39.60
8928;DHT22;4499;48.304;11.902;2023-07-20T08:56:16;29.60;38.90
8928;DHT22;4499;48.304;11.902;2023-07-20T08:58:44;29.70;36.60
8928;DHT22;4499;48.304;11.902;2023-07-20T09:01:14;29.10;38.20
8928;DHT22;4499;48.304;11.902;2023-07-20T09:03:43;28.60;39.20
8928;DHT22;4499;48.304;11.902;2023-07-20T09:06:13;27.90;41.90
8928;DHT22;4499;48.304;11.902;2023-07-20T09:08:43;27.10;42.40
8928;DHT22;4499;48.304;11.902;2023-07-20T09:11:12;26.40;41.50
8928;DHT22;4499;48.304;11.902;2023-07-20T09:13:42;26.00;44.10
8928;DHT22;4499;48.304;11.902;2023-07-20T09:16:13;25.50;43.40
8928;DHT22;4499;48.304;11.902;2023-07-20T09:18:42;25.70;45.40
8928;DHT22;4499;48.304;11.902;2023-07-20T09:21:10;25.60;43.50
8928;DHT22;4499;48.304;11.902;2023-07-20T09:23:38;25.40;45.40
8928;DHT22;4499;48.304;11.902;2023-07-20T09:26:13;25.20;47.60
8928;DHT22;4499;48.304;11.902;2023-07-20T09:28:42;25.20;46.20
8928;DHT22;4499;48.304;11.902;2023-07-20T09:31:17;25.00;46.20
8928;DHT22;4499;48.304;11.902;2023-07-20T09:33:47;24.70;47.80
8928;DHT22;4499;48.304;11.902;2023-07-20T09:36:18;24.70;49.20
8928;DHT22;4499;48.304;11.902;2023-07-20T09:39:07;24.50;48.40
8928;DHT22;4499;48.304;11.902;2023-07-20T09:41:45;24.30;49.80
8928;DHT22;4499;48.304;11.902;2023-07-20T09:44:14;24.20;49.00
8928;DHT22;4499;48.304;11.902;2023-07-20T09:46:46;24.60;50.20
8928;DHT22;4499;48.304;11.902;2023-07-20T09:49:18;25.20;50.90
8928;DHT22;4499;48.304;11.902;2023-07-20T09:51:49;25.60;47.20
8928;DHT22;4499;48.304;11.902;2023-07-20T09:54:18;25.70;48.30
8928;DHT22;4499;48.304;11.902;2023-07-20T09:56:51;25.50;47.00
8928;DHT22;4499;48.304;11.902;2023-07-20T09:59:19;25.20;47.30
8928;DHT22;4499;48.304;11.902;2023-07-20T10:01:49;25.00;49.00
8928;DHT22;4499;48.304;11.902;2023-07-20T10:04:20;24.90;49.30
8928;DHT22;4499;48.304;11.902;2023-07-20T10:06:49;24.70;50.60
8928;DHT22;4499;48.304;11.902;2023-07-20T10:09:20;24.70;52.40
8928;DHT22;4499;48.304;11.902;2023-07-20T10:11:53;24.40;49.60
8928;DHT22;4499;48.304;11.902;2023-07-20T10:14:26;24.20;48.80
8928;DHT22;4499;48.304;11.902;2023-07-20T10:16:58;24.10;49.50
8928;DHT22;4499;48.304;11.902;2023-07-20T10:19:34;24.70;52.50
8928;DHT22;4499;48.304;11.902;2023-07-20T10:22:07;25.20;48.60
8928;DHT22;4499;48.304;11.902;2023-07-20T10:24:39;25.20;50.10
8928;DHT22;4499;48.304;11.902;2023-07-20T10:27:09;25.20;50.10
8928;DHT22;4499;48.304;11.902;2023-07-20T10:29:38;25.10;49.40
8928;DHT22;4499;48.304;11.902;2023-07-20T10:32:08;25.30;48.20
8928;DHT22;4499;48.304;11.902;2023-07-20T10:34:36;25.80;47.40
8928;DHT22;4499;48.304;11.902;2023-07-20T10:37:05;26.30;47.10
8928;DHT22;4499;48.304;11.902;2023-07-20T10:39:33;26.70;46.80
8928;DHT22;4499;48.304;11.902;2023-07-20T10:42:02;26.80;46.30
8928;DHT22;4499;48.304;11.902;2023-07-20T10:44:32;26.30;43.90
8928;DHT22;4499;48.304;11.902;2023-07-20T10:47:01;25.80;47.90
8928;DHT22;4499;48.304;11.902;2023-07-20T10:49:33;25.40;48.90
8928;DHT22;4499;48.304;11.902;2023-07-20T10:52:04;25.30;47.60
8928;DHT22;4499;48.304;11.902;2023-07-20T10:54:34;24.80;46.90
8928;DHT22;4499;48.304;11.902;2023-07-20T10:57:25;24.40;48.60
8928;DHT22;4499;48.304;11.902;2023-07-20T11:00:09;24.30;48.10
8928;DHT22;4499;48.304;11.902;2023-07-20T11:02:45;24.00;48.00
8928;DHT22;4499;48.304;11.902;2023-07-20T11:05:37;24.00;53.40
8928;DHT22;4499;48.304;11.902;2023-07-20T11:08:09;24.00;55.80
8928;DHT22;4499;48.304;11.902;2023-07-20T11:10:38;24.00;52.80
8928;DHT22;4499;48.304;11.902;2023-07-20T11:13:20;24.10;53.30
8928;DHT22;4499;48.304;11.902;2023-07-20T11:16:03;24.10;51.70
8928;DHT22;4499;48.304;11.902;2023-07-20T11:18:34;24.00;51.90
8928;DHT22;4499;48.304;11.902;2023-07-20T11:21:09;24.10;53.00
8928;DHT22;4499;48.304;11.902;2023-07-20T11:23:38;24.20;53.20
8928;DHT22;4499;48.304;11.902;2023-07-20T11:26:07;24.50;52.70
8928;DHT22;4499;48.304;11.902;2023-07-20T11:28:35;24.50;53.20
8928;DHT22;4499;48.304;11.902;2023-07-20T11:31:05;24.50;50.90
8928;DHT22;4499;48.304;11.902;2023-07-20T11:33:33;24.70;50.50
8928;DHT22;4499;48.304;11.902;2023-07-20T11:36:01;24.80;53.20
8928;DHT22;4499;48.304;11.902;2023-07-20T11:38:50;25.00;52.00
8928;DHT22;4499;48.304;11.902;2023-07-20T11:41:19;25.20;50.70
8928;DHT22;4499;48.304;11.902;2023-07-20T11:43:48;25.90;53.60
8928;DHT22;4499;48.304;11.902;2023-07-20T11:46:17;26.60;50.80
8928;DHT22;4499;48.304;11.902;2023-07-20T11:48:46;26.80;46.30
8928;DHT22;4499;48.304;11.902;2023-07-20T11:51:14;26.60;46.00
8928;DHT22;4499;48.304;11.902;2023-07-20T11:53:44;27.30;51.10
8928;DHT22;4499;48.304;11.902;2023-07-20T11:56:13;27.30;45.40
8928;DHT22;4499;48.304;11.902;2023-07-20T11:58:44;27.00;48.00
8928;DHT22;4499;48.304;11.902;2023-07-20T12:01:13;26.50;45.20
8928;DHT22;4499;48.304;11.902;2023-07-20T12:03:43;26.10;46.20
8928;DHT22;4499;48.304;11.902;2023-07-20T12:06:13;25.60;47.80
8928;DHT22;4499;48.304;11.902;2023-07-20T12:08:42;25.20;48.20
8928;DHT22;4499;48.304;11.902;2023-07-20T12:11:11;25.20;51.10
8928;DHT22;4499;48.304;11.902;2023-07-20T12:13:41;25.10;50.40
8928;DHT22;4499;48.304;11.902;2023-07-20T12:16:11;25.20;50.50
8928;DHT22;4499;48.304;11.902;2023-07-20T12:18:40;25.50;49.50
8928;DHT22;4499;48.304;11.902;2023-07-20T12:21:10;25.60;50.10
8928;DHT22;4499;48.304;11.902;2023-07-20T12:23:40;25.60;50.00
8928;DHT22;4499;48.304;11.902;2023-07-20T12:26:09;25.50;51.60
8928;DHT22;4499;48.304;11.902;2023-07-20T12:28:41;25.70;49.10
8928;DHT22;4499;48.304;11.902;2023-07-20T12:31:09;26.40;49.90
8928;DHT22;4499;48.304;11.902;2023-07-20T12:33:40;27.00;49.50
8928;DHT22;4499;48.304;11.902;2023-07-20T12:36:10;27.10;48.10
8928;DHT22;4499;48.304;11.902;2023-07-20T12:38:38;27.40;48.70
8928;DHT22;4499;48.304;11.902;2023-07-20T12:41:10;26.90;45.50
8928;DHT22;4499;48.304;11.902;2023-07-20T12:43:40;26.60;46.20
8928;DHT22;4499;48.304;11.902;2023-07-20T12:46:09;26.50;46.00
8928;DHT22;4499;48.304;11.902;2023-07-20T12:48:38;26.10;47.60
8928;DHT22;4499;48.304;11.902;2023-07-20T12:51:13;26.00;50.50
8928;DHT22;4499;48.304;11.902;2023-07-20T12:53:41;25.70;49.10
8928;DHT22;4499;48.304;11.902;2023-07-20T12:56:10;26.20;48.00
8928;DHT22;4499;48.304;11.902;2023-07-20T12:58:41;26.70;48.40
8928;DHT22;4499;48.304;11.902;2023-07-20T13:01:09;26.90;46.00
8928;DHT22;4499;48.304;11.902;2023-07-20T13:03:38;27.00;48.10
8928;DHT22;4499;48.304;11.902;2023-07-20T13:06:27;27.00;47.30
8928;DHT22;4499;48.304;11.902;2023-07-20T13:08:56;26.70;47.10
8928;DHT22;4499;48.304;11.902;2023-07-20T13:11:25;26.00;46.30
8928;DHT22;4499;48.304;11.902;2023-07-20T13:13:54;25.90;48.80
8928;DHT22;4499;48.304;11.902;2023-07-20T13:16:22;25.50;48.20
8928;DHT22;4499;48.304;11.902;2023-07-20T13:18:51;25.70;51.00
8928;DHT22;4499;48.304;11.902;2023-07-20T13:21:20;25.70;50.50
8928;DHT22;4499;48.304;11.902;2023-07-20T13:23:53;26.00;50.90
8928;DHT22;4499;48.304;11.902;2023-07-20T13:26:22;25.90;51.00
8928;DHT22;4499;48.304;11.902;2023-07-20T13:28:50;25.80;48.60
8928;DHT22;4499;48.304;11.902;2023-07-20T13:31:21;25.90;49.50
8928;DHT22;4499;48.304;11.902;2023-07-20T13:33:50;25.70;50.10
8928;DHT22;4499;48.304;11.902;2023-07-20T13:36:25;25.90;51.60
8928;DHT22;4499;48.304;11.902;2023-07-20T13:38:58;26.10;49.10
8928;DHT22;4499;48.304;11.902;2023-07-20T13:41:26;26.50;49.80
8928;DHT22;4499;48.304;11.902;2023-07-20T13:43:56;26.60;48.40
8928;DHT22;4499;48.304;11.902;2023-07-20T13:46:24;26.70;48.20
8928;DHT22;4499;48.304;11.902;2023-07-20T13:48:55;27.00;47.90
8928;DHT22;4499;48.304;11.902;2023-07-20T13:51:24;27.20;47.90
8928;DHT22;4499;48.304;11.902;2023-07-20T13:53:54;27.10;45.30
8928;DHT22;4499;48.304;11.902;2023-07-20T13:56:24;27.30;46.70
8928;DHT22;4499;48.304;11.902;2023-07-20T13:58:52;27.50;45.00
8928;DHT22;4499;48.304;11.902;2023-07-20T14:01:24;27.50;44.80
8928;DHT22;4499;48.304;11.902;2023-07-20T14:03:56;27.30;45.20
8928;DHT22;4499;48.304;11.902;2023-07-20T14:06:31;27.20;46.80
8928;DHT22;4499;48.304;11.902;2023-07-20T14:09:00;27.30;46.50
8928;DHT22;4499;48.304;11.902;2023-07-20T14:11:29;27.20;44.10
8928;DHT22;4499;48.304;11.902;2023-07-20T14:14:00;27.00;45.60
8928;DHT22;4499;48.304;11.902;2023-07-20T14:16:29;27.20;45.00
8928;DHT22;4499;48.304;11.902;2023-07-20T14:18:59;27.30;44.70
8928;DHT22;4499;48.304;11.902;2023-07-20T14:21:27;27.20;45.60
8928;DHT22;4499;48.304;11.902;2023-07-20T14:23:57;27.20;43.50
8928;DHT22;4499;48.304;11.902;2023-07-20T14:26:29;26.90;43.60
8928;DHT22;4499;48.304;11.902;2023-07-20T14:28:59;27.00;42.70
8928;DHT22;4499;48.304;11.902;2023-07-20T14:31:28;26.90;43.80
8928;DHT22;4499;48.304;11.902;2023-07-20T14:33:58;26.90;43.80
8928;DHT22;4499;48.304;11.902;2023-07-20T14:36:26;26.60;43.60
8928;DHT22;4499;48.304;11.902;2023-07-20T14:38:55;26.60;45.50
8928;DHT22;4499;48.304;11.902;2023-07-20T14:41:25;26.90;46.20
8928;DHT22;4499;48.304;11.902;2023-07-20T14:43:54;26.70;44.10
8928;DHT22;4499;48.304;11.902;2023-07-20T14:46:24;26.60;45.50
8928;DHT22;4499;48.304;11.902;2023-07-20T14:48:53;26.70;44.60
8928;DHT22;4499;48.304;11.902;2023-07-20T14:51:21;26.60;45.00
8928;DHT22;4499;48.304;11.902;2023-07-20T14:53:49;26.80;45.40
8928;DHT22;4499;48.304;11.902;2023-07-20T14:56:17;26.80;44.50
8928;DHT22;4499;48.304;11.902;2023-07-20T14:58:45;26.90;45.90
8928;DHT22;4499;48.304;11.902;2023-07-20T15:01:15;26.60;45.50
8928;DHT22;4499;48.304;11.902;2023-07-20T15:03:43;26.40;46.50
8928;DHT22;4499;48.304;11.902;2023-07-20T15:06:11;26.40;45.50
8928;DHT22;4499;48.304;11.902;2023-07-20T15:08:40;26.10;45.60
8928;DHT22;4499;48.304;11.902;2023-07-20T15:11:08;26.10;46.50
8928;DHT22;4499;48.304;11.902;2023-07-20T15:13:36;26.30;46.20
8928;DHT22;4499;48.304;11.902;2023-07-20T15:16:04;26.50;46.30
8928;DHT22;4499;48.304;11.902;2023-07-20T15:18:33;26.50;46.80
8928;DHT22;4499;48.304;11.902;2023-07-20T15:21:14;26.10;44.60
8928;DHT22;4499;48.304;11.902;2023-07-20T15:23:42;26.30;45.40
8928;DHT22;4499;48.304;11.902;2023-07-20T15:26:10;26.10;45.70
8928;DHT22;4499;48.304;11.902;2023-07-20T15:28:39;26.10;44.60
8928;DHT22;4499;48.304;11.902;2023-07-20T15:31:08;26.00;44.90
8928;DHT22;4499;48.304;11.902;2023-07-20T15:33:37;25.50;45.40
8928;DHT22;4499;48.304;11.902;2023-07-20T15:36:06;25.30;46.80
8928;DHT22;4499;48.304;11.902;2023-07-20T15:38:35;25.40;48.40
8928;DHT22;4499;48.304;11.902;2023-07-20T15:41:03;25.60;47.80
8928;DHT22;4499;48.304;11.902;2023-07-20T15:43:31;25.80;45.60
8928;DHT22;4499;48.304;11.902;2023-07-20T15:48:59;26.00;46.00
8928;DHT22;4499;48.304;11.902;2023-07-20T15:51:30;25.90;47.30
8928;DHT22;4499;48.304;11.902;2023-07-20T15:53:58;26.00;45.60
8928;DHT22;4499;48.304;11.902;2023-07-20T15:56:26;25.90;44.80
8928;DHT22;4499;48.304;11.902;2023-07-20T15:58:54;25.80;46.10
8928;DHT22;4499;48.304;11.902;2023-07-20T16:01:23;25.60;46.80
8928;DHT22;4499;48.304;11.902;2023-07-20T16:03:52;25.80;46.30